Главная страница
METAR-TAF:

METAR-TAF

Аэропорты :

Cumberland, Мэриленд, США

широта: 39-36-56N, долгота: 078-45-39W, высота над уровнем моря: 236 м

Текущие метеонаблюдения

Эта сводка был подготовлена 24 минут назад, в 05:56 UTC
Штиль
Температура 18°C
Влажность 100%
Давление 1013 hPa
Видимость: 16.1 км
Сплошная облачность на высоте 1500 фута

METAR: KCBE 230556Z AUTO 00000KT 10SM OVC015 18/18 A2991 RMK AO1

Время: 02:20 (06:20 UTC)


TAF: отсутствует

Метеонаблюдения и прогнозы для более 4000 аэропортов (сводки METAR и TAF).

Имеющиеся станции представлены на карте желтыми и красными точками.

Чтобы увидеть название станции, наведите на нее мышь.

Затем щелкните, чтобы увидеть метеонаблюдения и метеопрогнозы.

Управление картой: чтобы увеличить масштаб, щелкните зеленые кнопки с черным крестиком; чтобы уменьшить масштаб, щелкните зеленую кнопку с тире; для просмотра соседних карт щелкайте зеленые стрелки.


METAR-TAF: